createdAt,value
2023-03-27T00:01:28.793Z,7.25
2023-03-27T00:03:56.119Z,0.75
2023-03-27T00:06:23.231Z,0.00
2023-03-27T00:08:52.281Z,2.00
2023-03-27T00:11:21.491Z,1.00
2023-03-27T00:13:51.384Z,1.50
2023-03-27T00:16:18.959Z,1.00
2023-03-27T00:18:46.092Z,1.75
2023-03-27T00:21:14.908Z,0.50
2023-03-27T00:23:42.625Z,1.00
2023-03-27T00:26:10.328Z,1.00
2023-03-27T00:28:37.673Z,2.25
2023-03-27T00:31:10.197Z,6.25
2023-03-27T00:33:37.807Z,6.50
2023-03-27T00:36:06.783Z,4.00
2023-03-27T00:38:34.066Z,15.00
2023-03-27T00:41:01.777Z,7.00
2023-03-27T00:43:31.155Z,10.50
2023-03-27T00:46:03.368Z,19.00
2023-03-27T00:48:35.614Z,2.00
2023-03-27T00:51:05.448Z,8.75
2023-03-27T00:53:33.350Z,6.00
2023-03-27T00:56:03.843Z,1.75
2023-03-27T00:58:36.655Z,8.75
2023-03-27T01:01:03.693Z,1.25
2023-03-27T01:03:33.126Z,1.00
2023-03-27T01:06:02.108Z,1.00
2023-03-27T01:08:31.087Z,1.50
2023-03-27T01:11:12.391Z,1.75
2023-03-27T01:14:01.189Z,1.00
2023-03-27T01:16:36.982Z,2.75
2023-03-27T01:19:30.283Z,2.50
2023-03-27T01:22:35.556Z,2.00
2023-03-27T01:25:50.137Z,2.00
2023-03-27T01:28:26.575Z,4.50
2023-03-27T01:30:59.390Z,3.50
2023-03-27T01:33:54.278Z,5.25
2023-03-27T01:36:45.693Z,3.00
2023-03-27T01:39:45.722Z,3.00
2023-03-27T01:42:22.594Z,3.00
2023-03-27T01:44:54.476Z,2.25
2023-03-27T01:47:43.343Z,2.75
2023-03-27T01:50:19.757Z,1.00
2023-03-27T01:52:53.680Z,1.75
2023-03-27T01:55:27.047Z,3.00
2023-03-27T01:57:59.831Z,3.00
2023-03-27T02:00:52.280Z,4.00
2023-03-27T02:03:20.958Z,2.00
2023-03-27T02:05:54.061Z,2.50
2023-03-27T02:08:25.161Z,2.00
2023-03-27T02:10:58.579Z,3.00
2023-03-27T02:13:32.108Z,2.00
2023-03-27T02:16:01.816Z,2.00
2023-03-27T02:18:33.361Z,2.25
2023-03-27T02:21:00.807Z,3.50
2023-03-27T02:23:28.390Z,2.00
2023-03-27T02:25:57.452Z,3.50
2023-03-27T02:28:47.677Z,2.00
2023-03-27T02:31:34.606Z,2.75
2023-03-27T02:34:35.134Z,3.00
2023-03-27T02:37:14.808Z,3.50
2023-03-27T02:39:49.947Z,2.00
2023-03-27T02:42:24.250Z,2.75
2023-03-27T02:44:57.070Z,5.00
2023-03-27T02:47:31.185Z,3.00
2023-03-27T02:50:03.223Z,3.00
2023-03-27T02:52:37.221Z,3.00
2023-03-27T02:55:12.474Z,2.00
2023-03-27T02:57:52.078Z,5.00
2023-03-27T03:00:22.704Z,2.25
2023-03-27T03:02:57.310Z,3.00
2023-03-27T03:05:26.971Z,2.00
2023-03-27T03:07:54.481Z,4.50
2023-03-27T03:10:21.502Z,4.00
2023-03-27T03:12:50.018Z,3.00
2023-03-27T03:15:20.026Z,3.00
2023-03-27T03:17:47.432Z,1.75
2023-03-27T03:20:14.702Z,3.50
2023-03-27T03:22:42.429Z,2.75
2023-03-27T03:25:10.544Z,1.75
2023-03-27T03:27:37.754Z,9.00
2023-03-27T03:30:08.484Z,25.75
2023-03-27T03:32:35.418Z,16.50
2023-03-27T03:35:02.606Z,28.75
2023-03-27T03:37:29.444Z,29.33
2023-03-27T03:39:56.314Z,11.75
2023-03-27T03:42:24.122Z,17.75
2023-03-27T03:44:51.664Z,31.50
2023-03-27T03:47:20.414Z,29.67
2023-03-27T03:49:48.167Z,28.33
2023-03-27T03:52:15.571Z,28.67
2023-03-27T03:54:43.219Z,25.00
2023-03-27T03:57:12.222Z,30.00
2023-03-27T03:59:39.453Z,36.00
2023-03-27T04:02:07.838Z,34.33
2023-03-27T04:04:36.958Z,29.00
2023-03-27T04:07:04.929Z,37.00
2023-03-27T04:09:32.089Z,50.00
2023-03-27T04:11:59.138Z,48.33
2023-03-27T04:14:26.638Z,36.00
2023-03-27T04:16:54.425Z,50.33
2023-03-27T04:19:22.622Z,41.67
2023-03-27T04:21:51.268Z,13.00
2023-03-27T04:24:19.387Z,39.67
2023-03-27T04:26:47.655Z,44.67
2023-03-27T04:29:15.187Z,48.00
2023-03-27T04:31:42.089Z,43.67
2023-03-27T04:34:09.146Z,39.00
2023-03-27T04:36:37.197Z,32.67
2023-03-27T04:39:05.868Z,40.67
2023-03-27T04:41:34.301Z,40.33
2023-03-27T04:44:01.527Z,58.00
2023-03-27T04:46:28.723Z,44.00
2023-03-27T04:48:56.856Z,47.67
2023-03-27T04:51:23.986Z,57.67
2023-03-27T04:53:51.727Z,52.33
2023-03-27T04:56:21.521Z,34.00
2023-03-27T04:58:50.990Z,52.00
2023-03-27T05:01:18.632Z,49.67
2023-03-27T05:03:46.407Z,46.33
2023-03-27T05:06:13.902Z,62.00
2023-03-27T05:08:40.887Z,68.33
2023-03-27T05:11:08.326Z,50.00
2023-03-27T05:13:39.382Z,30.50
2023-03-27T05:16:07.384Z,31.25
2023-03-27T05:18:35.837Z,36.00
2023-03-27T05:21:03.660Z,38.00
2023-03-27T05:23:31.054Z,32.33
2023-03-27T05:26:00.052Z,33.33
2023-03-27T05:28:28.761Z,28.33
2023-03-27T05:30:57.777Z,36.67
2023-03-27T05:33:26.056Z,39.33
2023-03-27T05:35:53.771Z,31.33
2023-03-27T05:38:21.313Z,25.50
2023-03-27T05:40:48.216Z,28.75
2023-03-27T05:43:16.432Z,31.50
2023-03-27T05:45:45.591Z,26.50
2023-03-27T05:48:14.978Z,15.75
2023-03-27T05:50:43.583Z,18.75
2023-03-27T05:53:12.049Z,24.25
2023-03-27T05:55:40.274Z,22.50
2023-03-27T05:58:07.487Z,9.75
2023-03-27T06:00:35.575Z,10.25
2023-03-27T06:03:04.271Z,11.50
2023-03-27T06:05:33.858Z,8.50
2023-03-27T06:08:02.394Z,6.25
2023-03-27T06:10:31.177Z,6.50
2023-03-27T06:13:04.939Z,2.00
2023-03-27T06:15:33.427Z,4.25
2023-03-27T06:18:01.686Z,4.50
2023-03-27T06:20:29.705Z,8.75
2023-03-27T06:23:01.369Z,28.00
2023-03-27T06:25:30.436Z,14.75
2023-03-27T06:27:57.755Z,54.67
2023-03-27T06:30:26.204Z,75.00
2023-03-27T06:32:56.387Z,38.25
2023-03-27T06:35:25.258Z,21.00
2023-03-27T06:37:53.237Z,16.50
2023-03-27T06:40:23.749Z,15.50
2023-03-27T06:42:53.160Z,5.50
2023-03-27T06:45:20.865Z,6.00
2023-03-27T06:47:54.780Z,4.50
2023-03-27T06:50:23.692Z,2.25
2023-03-27T06:52:51.152Z,11.50
2023-03-27T06:55:20.064Z,7.50
2023-03-27T06:57:50.507Z,9.00
2023-03-27T07:00:20.162Z,6.00
2023-03-27T07:02:47.337Z,5.25
2023-03-27T07:05:15.114Z,3.25
2023-03-27T07:07:45.730Z,10.00
2023-03-27T07:10:14.132Z,13.00
2023-03-27T07:12:45.732Z,26.50
2023-03-27T07:15:14.734Z,27.00
2023-03-27T07:17:48.716Z,29.75
2023-03-27T07:20:16.263Z,32.00
2023-03-27T07:22:44.888Z,21.25
2023-03-27T07:25:11.681Z,13.00
2023-03-27T07:27:38.765Z,8.25
2023-03-27T07:30:10.120Z,7.00
2023-03-27T07:32:43.058Z,4.75
2023-03-27T07:35:10.832Z,7.25
2023-03-27T07:37:39.095Z,6.25
2023-03-27T07:40:10.151Z,6.25
2023-03-27T07:42:40.293Z,12.00
2023-03-27T07:45:11.615Z,11.25
2023-03-27T07:47:44.150Z,7.00
2023-03-27T07:50:13.392Z,6.00
2023-03-27T07:52:42.505Z,7.00
2023-03-27T07:55:13.485Z,8.00
2023-03-27T07:57:57.998Z,7.25
2023-03-27T08:00:28.398Z,6.25
2023-03-27T08:03:05.969Z,8.00
2023-03-27T08:05:33.923Z,4.50
2023-03-27T08:08:05.620Z,13.75
2023-03-27T08:10:33.672Z,8.50
2023-03-27T08:13:01.896Z,8.00
2023-03-27T08:15:28.683Z,7.50
2023-03-27T08:17:59.531Z,4.00
2023-03-27T08:20:26.490Z,7.00
2023-03-27T08:22:53.565Z,7.25
2023-03-27T08:25:22.081Z,3.75
2023-03-27T08:27:51.141Z,4.00
2023-03-27T08:30:19.249Z,7.00
2023-03-27T08:32:46.887Z,6.00
2023-03-27T08:35:17.133Z,7.00
2023-03-27T08:37:44.379Z,4.00
2023-03-27T08:40:19.459Z,5.00
2023-03-27T08:42:53.530Z,20.00
2023-03-27T08:45:26.401Z,11.00
2023-03-27T08:48:01.123Z,4.00
2023-03-27T08:50:36.527Z,10.25
2023-03-27T08:53:11.926Z,3.00
2023-03-27T08:55:40.300Z,8.50
2023-03-27T08:58:18.796Z,24.75
2023-03-27T09:00:49.100Z,25.25
2023-03-27T09:03:23.889Z,15.00
2023-03-27T09:05:59.307Z,1.00
2023-03-27T09:08:43.943Z,6.25
2023-03-27T09:11:26.864Z,2.00
2023-03-27T09:13:53.979Z,3.00
2023-03-27T09:16:28.673Z,4.00
2023-03-27T09:19:03.686Z,4.00
2023-03-27T09:21:41.134Z,3.25
2023-03-27T09:24:15.729Z,2.00
2023-03-27T09:26:43.359Z,4.00
2023-03-27T09:29:20.483Z,3.00
2023-03-27T09:31:49.364Z,2.33
2023-03-27T09:34:26.962Z,1.00
2023-03-27T09:36:58.310Z,2.00
2023-03-27T09:39:30.347Z,3.00
2023-03-27T09:42:07.184Z,4.00
2023-03-27T09:44:40.564Z,4.67
2023-03-27T09:47:15.762Z,6.33
2023-03-27T09:49:48.846Z,4.33
2023-03-27T09:52:35.269Z,6.00
2023-03-27T09:55:02.507Z,3.67
2023-03-27T09:57:31.867Z,5.67
2023-03-27T10:00:01.496Z,4.00
2023-03-27T10:02:31.140Z,5.00
2023-03-27T10:05:00.737Z,3.00
2023-03-27T10:07:29.302Z,3.00
2023-03-27T10:10:07.125Z,6.67
2023-03-27T10:12:37.517Z,5.00
2023-03-27T10:15:06.945Z,5.00
2023-03-27T10:17:38.527Z,5.67
2023-03-27T10:20:13.071Z,10.00
2023-03-27T10:22:44.090Z,8.67
2023-03-27T10:25:21.237Z,10.33
2023-03-27T10:27:51.163Z,15.67
2023-03-27T10:30:29.570Z,13.67
2023-03-27T10:32:56.918Z,10.50
2023-03-27T10:35:27.175Z,9.33
2023-03-27T10:37:56.276Z,9.33
2023-03-27T10:40:26.750Z,4.75
2023-03-27T10:42:57.699Z,6.75
2023-03-27T10:45:24.604Z,7.50
2023-03-27T10:47:55.343Z,7.00
2023-03-27T10:50:32.814Z,6.25
2023-03-27T10:53:12.685Z,8.00
2023-03-27T10:55:56.594Z,6.75
2023-03-27T10:58:31.472Z,6.00
2023-03-27T11:01:05.578Z,7.00
2023-03-27T11:03:40.278Z,5.00
2023-03-27T11:06:13.971Z,9.50
2023-03-27T11:08:52.348Z,8.50
2023-03-27T11:11:26.463Z,10.00
2023-03-27T11:13:58.773Z,8.75
2023-03-27T11:16:33.655Z,9.25
2023-03-27T11:19:25.216Z,8.00
2023-03-27T11:21:55.053Z,6.50
2023-03-27T11:24:34.140Z,6.00
2023-03-27T11:27:06.797Z,8.50
2023-03-27T11:29:40.100Z,9.33
2023-03-27T11:32:20.461Z,7.00
2023-03-27T11:34:54.343Z,7.67
2023-03-27T11:37:29.777Z,8.25
2023-03-27T11:40:03.400Z,8.25
2023-03-27T11:42:36.293Z,7.75
2023-03-27T11:45:03.421Z,5.25
2023-03-27T11:47:48.626Z,4.67
2023-03-27T11:50:26.347Z,6.25
2023-03-27T11:53:08.851Z,7.00
2023-03-27T11:55:47.085Z,6.00
2023-03-27T11:58:25.697Z,7.00
2023-03-27T12:01:05.624Z,9.33
2023-03-27T12:04:20.847Z,7.00
2023-03-27T12:06:55.119Z,5.75
2023-03-27T12:09:39.762Z,7.00
2023-03-27T12:12:27.131Z,5.00
2023-03-27T12:15:06.362Z,3.75
2023-03-27T12:17:48.375Z,3.75
2023-03-27T12:20:55.584Z,0.00
2023-03-27T12:23:31.711Z,4.00
2023-03-27T12:26:16.350Z,1.75
2023-03-27T12:28:58.242Z,4.00
2023-03-27T12:31:45.284Z,3.67
2023-03-27T12:34:28.451Z,4.00
2023-03-27T12:36:59.352Z,2.00
2023-03-27T12:39:27.866Z,4.00
2023-03-27T12:42:12.572Z,2.00
2023-03-27T12:45:05.679Z,3.33
2023-03-27T12:47:35.338Z,4.00
2023-03-27T12:50:17.186Z,5.00
2023-03-27T12:52:50.970Z,3.67
2023-03-27T12:55:33.291Z,4.00
2023-03-27T12:58:02.041Z,3.33
2023-03-27T13:00:33.349Z,3.00
2023-03-27T13:03:45.884Z,5.00
2023-03-27T13:06:22.370Z,3.67
2023-03-27T13:09:09.767Z,3.00
2023-03-27T13:11:48.435Z,2.00
2023-03-27T13:14:46.174Z,2.50
2023-03-27T13:17:42.637Z,2.00
2023-03-27T13:20:22.885Z,2.00
2023-03-27T13:23:16.165Z,2.50
2023-03-27T13:26:08.209Z,2.00
2023-03-27T13:28:38.919Z,2.25
2023-03-27T13:31:07.399Z,2.75
2023-03-27T13:33:47.764Z,3.00
2023-03-27T13:36:21.857Z,3.25
2023-03-27T13:39:14.542Z,2.50
2023-03-27T13:41:54.667Z,2.00
2023-03-27T13:44:33.093Z,4.33
2023-03-27T13:47:16.163Z,3.67
2023-03-27T13:50:08.545Z,5.00
2023-03-27T13:53:09.017Z,4.00
2023-03-27T13:55:57.063Z,3.00
2023-03-27T13:58:47.676Z,3.67
2023-03-27T14:01:34.529Z,3.00
2023-03-27T14:04:29.687Z,3.50
2023-03-27T14:07:44.191Z,3.00
2023-03-27T14:10:25.261Z,3.00
2023-03-27T14:13:09.115Z,3.75
2023-03-27T14:15:50.073Z,2.00
2023-03-27T14:18:54.011Z,2.00
2023-03-27T14:21:35.598Z,2.00
2023-03-27T14:24:19.120Z,3.00
2023-03-27T14:26:50.041Z,2.00
2023-03-27T14:29:17.169Z,1.00
2023-03-27T14:31:45.732Z,2.00
2023-03-27T14:34:19.475Z,3.00
2023-03-27T14:36:46.437Z,2.00
2023-03-27T14:39:16.125Z,2.00
2023-03-27T14:41:57.533Z,1.75
2023-03-27T14:44:27.226Z,3.00
2023-03-27T14:47:01.706Z,3.25
2023-03-27T14:49:34.766Z,1.25
2023-03-27T14:52:05.690Z,3.00
2023-03-27T14:54:44.624Z,2.00
2023-03-27T14:57:25.060Z,2.00
2023-03-27T14:59:54.130Z,3.00
2023-03-27T15:02:26.010Z,6.00
2023-03-27T15:04:54.940Z,3.00
2023-03-27T15:07:24.443Z,4.00
2023-03-27T15:10:01.918Z,3.67
2023-03-27T15:12:32.631Z,2.00
2023-03-27T15:14:59.623Z,1.50
2023-03-27T15:17:28.888Z,2.75
2023-03-27T15:20:01.845Z,2.00
2023-03-27T15:22:35.336Z,2.00
2023-03-27T15:25:07.914Z,2.67
2023-03-27T15:27:42.950Z,3.00
2023-03-27T15:30:24.531Z,2.67
2023-03-27T15:32:55.213Z,1.33
2023-03-27T15:35:29.646Z,2.00
2023-03-27T15:37:59.471Z,1.33
2023-03-27T15:40:32.844Z,1.75
2023-03-27T15:43:23.677Z,4.00
2023-03-27T15:46:13.788Z,1.00
2023-03-27T15:48:43.557Z,3.50
2023-03-27T15:51:13.103Z,4.00
2023-03-27T15:53:42.763Z,3.75
2023-03-27T15:56:20.951Z,4.00
2023-03-27T15:58:53.314Z,3.00
2023-03-27T16:01:23.774Z,4.00
2023-03-27T16:03:51.733Z,2.00
2023-03-27T16:06:29.343Z,2.25
2023-03-27T16:08:57.210Z,1.00
2023-03-27T16:11:38.506Z,2.00
2023-03-27T16:14:21.822Z,2.00
2023-03-27T16:16:48.732Z,1.67
2023-03-27T16:19:16.867Z,3.00
2023-03-27T16:21:55.598Z,4.00
2023-03-27T16:24:23.169Z,9.75
2023-03-27T16:26:51.684Z,4.00
2023-03-27T16:29:22.120Z,3.00
2023-03-27T16:31:50.053Z,2.33
2023-03-27T16:34:22.207Z,3.00
2023-03-27T16:36:52.059Z,2.25
2023-03-27T16:39:19.976Z,1.75
2023-03-27T16:41:49.090Z,1.00
2023-03-27T16:44:16.089Z,1.00
2023-03-27T16:46:46.438Z,1.25
2023-03-27T16:49:14.245Z,3.00
2023-03-27T16:51:41.124Z,1.00
2023-03-27T16:54:09.196Z,4.00
2023-03-27T16:56:37.937Z,2.67
2023-03-27T16:59:05.544Z,1.67
2023-03-27T17:01:32.525Z,1.33
2023-03-27T17:04:01.261Z,1.33
2023-03-27T17:06:28.414Z,2.33
2023-03-27T17:08:55.758Z,1.00
2023-03-27T17:11:23.723Z,2.00
2023-03-27T17:13:52.241Z,1.00
2023-03-27T17:16:19.509Z,1.00
2023-03-27T17:18:48.233Z,2.50
2023-03-27T17:21:17.641Z,2.00
2023-03-27T17:23:44.732Z,0.00
2023-03-27T17:26:13.530Z,2.50
2023-03-27T17:28:43.530Z,2.00
2023-03-27T17:31:11.649Z,1.50
2023-03-27T17:33:39.092Z,2.50
2023-03-27T17:36:13.090Z,2.25
2023-03-27T17:38:42.061Z,2.00
2023-03-27T17:41:10.442Z,2.00
2023-03-27T17:43:37.903Z,1.33
2023-03-27T17:46:06.150Z,1.00
2023-03-27T17:48:33.666Z,1.67
2023-03-27T17:51:09.012Z,3.00
2023-03-27T17:53:39.136Z,3.00
2023-03-27T17:56:09.971Z,2.00
2023-03-27T17:58:37.165Z,2.00
2023-03-27T18:01:16.791Z,2.00
2023-03-27T18:03:44.173Z,1.75
2023-03-27T18:06:11.688Z,2.25
2023-03-27T18:08:38.630Z,3.75
2023-03-27T18:11:11.200Z,3.25
2023-03-27T18:13:39.356Z,2.00
2023-03-27T18:16:08.283Z,0.50
2023-03-27T18:18:36.227Z,2.75
2023-03-27T18:21:04.627Z,5.00
2023-03-27T18:23:32.797Z,2.75
2023-03-27T18:26:03.473Z,8.75
2023-03-27T18:28:32.184Z,8.00
2023-03-27T18:31:00.432Z,9.25
2023-03-27T18:33:27.624Z,8.25
2023-03-27T18:35:57.554Z,8.00
2023-03-27T18:38:26.114Z,9.50
2023-03-27T18:40:55.179Z,8.25
2023-03-27T18:43:22.205Z,8.50
2023-03-27T18:45:58.037Z,5.00
2023-03-27T18:48:27.602Z,3.50
2023-03-27T18:50:57.960Z,5.00
2023-03-27T18:53:27.976Z,7.25
2023-03-27T18:55:55.507Z,6.00
2023-03-27T18:58:25.541Z,9.00
2023-03-27T19:00:53.483Z,4.50
2023-03-27T19:03:25.362Z,4.75
2023-03-27T19:05:53.387Z,4.00
2023-03-27T19:08:21.902Z,5.75
2023-03-27T19:10:49.201Z,3.00
2023-03-27T19:13:16.177Z,13.25
2023-03-27T19:15:44.821Z,13.50
2023-03-27T19:18:12.614Z,11.25
2023-03-27T19:20:42.695Z,11.00
2023-03-27T19:23:09.628Z,16.75
2023-03-27T19:25:37.264Z,15.25
2023-03-27T19:28:06.289Z,25.25
2023-03-27T19:30:33.791Z,23.00
2023-03-27T19:33:00.730Z,20.75
2023-03-27T19:35:28.330Z,22.25
2023-03-27T19:37:57.668Z,17.00
2023-03-27T19:40:24.844Z,17.50
2023-03-27T19:42:52.740Z,19.50
2023-03-27T19:45:19.778Z,18.25
2023-03-27T19:47:47.772Z,17.25
2023-03-27T19:50:14.678Z,16.00
2023-03-27T19:52:42.383Z,11.75
2023-03-27T19:55:11.229Z,12.75
2023-03-27T19:57:40.675Z,15.25
2023-03-27T20:00:09.342Z,14.00
2023-03-27T20:02:37.658Z,14.50
2023-03-27T20:05:05.937Z,9.00
2023-03-27T20:07:34.957Z,13.00
2023-03-27T20:10:02.479Z,12.00
2023-03-27T20:12:33.140Z,12.75
2023-03-27T20:15:11.068Z,10.50
2023-03-27T20:17:39.511Z,13.50
2023-03-27T20:20:07.996Z,15.25
2023-03-27T20:22:40.735Z,14.25
2023-03-27T20:25:14.069Z,12.75
2023-03-27T20:27:43.382Z,10.00
2023-03-27T20:30:11.042Z,14.00
2023-03-27T20:32:37.876Z,4.00
2023-03-27T20:35:16.502Z,9.25
2023-03-27T20:37:50.758Z,12.50
2023-03-27T20:40:17.912Z,9.75
2023-03-27T20:42:46.734Z,9.00
2023-03-27T20:45:14.798Z,9.75
2023-03-27T20:47:41.900Z,13.00
2023-03-27T20:50:10.431Z,13.25
2023-03-27T20:52:38.607Z,9.75
2023-03-27T20:55:06.579Z,9.50
2023-03-27T20:57:34.561Z,8.25
2023-03-27T21:00:04.900Z,10.25
2023-03-27T21:02:33.287Z,5.00
2023-03-27T21:05:00.267Z,7.25
2023-03-27T21:07:27.849Z,8.75
2023-03-27T21:09:55.260Z,7.25
2023-03-27T21:12:22.161Z,7.50
2023-03-27T21:14:50.498Z,8.00
2023-03-27T21:17:20.535Z,10.00
2023-03-27T21:19:47.923Z,8.50
2023-03-27T21:22:16.872Z,8.50
2023-03-27T21:24:45.761Z,9.25
2023-03-27T21:27:13.286Z,8.00
2023-03-27T21:29:42.165Z,11.25
2023-03-27T21:32:09.470Z,8.75
2023-03-27T21:34:38.102Z,6.00
2023-03-27T21:37:05.316Z,6.75
2023-03-27T21:39:32.317Z,7.50
2023-03-27T21:41:59.248Z,4.00
2023-03-27T21:44:26.061Z,10.00
2023-03-27T21:46:52.867Z,8.00
2023-03-27T21:49:19.974Z,8.00
2023-03-27T21:51:48.670Z,6.75
2023-03-27T21:54:16.321Z,6.50
2023-03-27T21:56:43.276Z,7.25
2023-03-27T21:59:10.356Z,5.00
2023-03-27T22:01:37.732Z,7.75
2023-03-27T22:04:04.685Z,7.00
2023-03-27T22:06:31.895Z,7.25
2023-03-27T22:09:01.132Z,7.75
2023-03-27T22:11:29.233Z,2.50
2023-03-27T22:13:56.364Z,7.00
2023-03-27T22:16:24.135Z,5.50
2023-03-27T22:18:51.642Z,4.25
2023-03-27T22:21:21.130Z,9.50
2023-03-27T22:23:49.173Z,6.75
2023-03-27T22:26:18.702Z,5.50
2023-03-27T22:28:46.654Z,7.00
2023-03-27T22:31:14.916Z,5.50
2023-03-27T22:33:42.399Z,6.25
2023-03-27T22:36:12.041Z,7.00
2023-03-27T22:38:40.537Z,8.25
2023-03-27T22:41:09.441Z,7.00
2023-03-27T22:43:39.397Z,4.75
2023-03-27T22:46:08.485Z,4.50
2023-03-27T22:48:36.971Z,7.00
2023-03-27T22:51:04.929Z,6.25
2023-03-27T22:53:32.645Z,5.00
2023-03-27T22:56:01.630Z,4.00
2023-03-27T22:58:30.548Z,6.00
2023-03-27T23:01:00.734Z,7.25
2023-03-27T23:03:28.510Z,6.00
2023-03-27T23:05:55.676Z,3.25
2023-03-27T23:08:25.799Z,3.00
2023-03-27T23:10:56.405Z,5.00
2023-03-27T23:13:23.522Z,4.75
2023-03-27T23:15:52.427Z,3.75
2023-03-27T23:18:22.090Z,3.50
2023-03-27T23:20:54.205Z,4.00
2023-03-27T23:23:21.095Z,5.00
2023-03-27T23:25:48.420Z,4.25
2023-03-27T23:28:15.904Z,5.00
2023-03-27T23:30:43.097Z,4.75
2023-03-27T23:33:10.513Z,4.00
2023-03-27T23:35:40.718Z,4.00
2023-03-27T23:38:07.937Z,5.25
2023-03-27T23:40:35.779Z,5.25
2023-03-27T23:43:02.932Z,5.00
2023-03-27T23:45:29.915Z,6.00
2023-03-27T23:47:57.231Z,4.75
2023-03-27T23:50:24.121Z,4.00
2023-03-27T23:52:52.709Z,8.00
2023-03-27T23:55:19.853Z,5.00
2023-03-27T23:57:46.757Z,15.00
